createdAt,value
2023-02-12T00:00:24.412Z,5.14
2023-02-12T00:04:40.760Z,5.28
2023-02-12T00:08:58.075Z,5.09
2023-02-12T00:13:15.324Z,5.29
2023-02-12T00:17:31.657Z,5.10
2023-02-12T00:21:47.891Z,5.47
2023-02-12T00:26:12.497Z,5.15
2023-02-12T00:30:29.833Z,5.21
2023-02-12T00:34:49.093Z,5.20
2023-02-12T00:39:05.470Z,5.16
2023-02-12T00:43:21.762Z,5.15
2023-02-12T00:47:37.936Z,5.24
2023-02-12T00:51:54.178Z,5.42
2023-02-12T00:56:10.468Z,5.11
2023-02-12T01:00:27.073Z,5.53
2023-02-12T01:04:43.513Z,5.54
2023-02-12T01:09:00.245Z,5.56
2023-02-12T01:13:16.835Z,5.53
2023-02-12T01:17:33.062Z,5.54
2023-02-12T01:21:49.443Z,5.22
2023-02-12T01:26:07.656Z,5.04
2023-02-12T01:30:24.456Z,4.92
2023-02-12T01:34:40.649Z,4.97
2023-02-12T01:38:58.193Z,5.13
2023-02-12T01:43:14.671Z,5.18
2023-02-12T01:47:30.939Z,4.74
2023-02-12T01:51:48.338Z,4.81
2023-02-12T01:56:05.205Z,4.85
2023-02-12T02:00:24.726Z,4.89
2023-02-12T02:04:44.357Z,4.99
2023-02-12T02:09:01.225Z,4.33
2023-02-12T02:13:36.600Z,4.76
2023-02-12T02:18:09.395Z,4.46
2023-02-12T02:22:39.474Z,4.89
2023-02-12T02:26:59.486Z,4.44
2023-02-12T02:31:15.930Z,4.53
2023-02-12T02:35:56.253Z,4.84
2023-02-12T02:40:15.860Z,4.76
2023-02-12T02:45:03.138Z,4.62
2023-02-12T02:49:34.908Z,4.76
2023-02-12T02:54:00.498Z,4.99
2023-02-12T02:58:23.776Z,4.79
2023-02-12T03:02:42.968Z,5.01
2023-02-12T03:07:17.481Z,5.23
2023-02-12T03:11:34.761Z,5.39
2023-02-12T03:16:13.388Z,5.30
2023-02-12T03:20:33.655Z,5.45
2023-02-12T03:24:56.209Z,5.32
2023-02-12T03:29:12.870Z,5.27
2023-02-12T03:33:35.217Z,5.24
2023-02-12T03:38:27.041Z,4.91
2023-02-12T03:43:03.208Z,4.77
2023-02-12T03:47:24.307Z,4.71
2023-02-12T03:51:43.746Z,4.98
2023-02-12T03:56:05.346Z,4.97
2023-02-12T04:00:24.364Z,4.91
2023-02-12T04:04:40.737Z,4.82
2023-02-12T04:08:59.389Z,4.94
2023-02-12T04:13:21.678Z,5.15
2023-02-12T04:18:01.359Z,5.06
2023-02-12T04:22:54.652Z,5.05
2023-02-12T04:27:29.330Z,5.04
2023-02-12T04:32:20.224Z,4.99
2023-02-12T04:37:04.406Z,4.85
2023-02-12T04:41:20.933Z,4.63
2023-02-12T04:45:38.508Z,4.73
2023-02-12T04:49:54.680Z,4.95
2023-02-12T04:54:11.265Z,4.90
2023-02-12T04:58:27.449Z,4.68
2023-02-12T05:02:43.641Z,4.82
2023-02-12T05:06:59.891Z,5.07
2023-02-12T05:11:16.096Z,4.31
2023-02-12T05:15:32.350Z,4.75
2023-02-12T05:19:49.152Z,4.80
2023-02-12T05:24:05.915Z,4.87
2023-02-12T05:28:22.204Z,4.92
2023-02-12T05:32:38.675Z,4.89
2023-02-12T05:36:54.906Z,4.65
2023-02-12T05:41:17.054Z,4.61
2023-02-12T05:45:33.860Z,4.54
2023-02-12T05:49:50.040Z,3.98
2023-02-12T05:54:07.738Z,4.53
2023-02-12T05:58:23.887Z,4.04
2023-02-12T06:02:40.324Z,4.60
2023-02-12T06:06:57.036Z,4.45
2023-02-12T06:11:16.090Z,4.12
2023-02-12T06:15:32.456Z,4.28
2023-02-12T06:19:48.930Z,4.13
2023-02-12T06:24:05.410Z,4.26
2023-02-12T06:28:21.670Z,4.11
2023-02-12T06:32:37.977Z,4.01
2023-02-12T06:36:54.169Z,4.06
2023-02-12T06:41:10.804Z,3.82
2023-02-12T06:45:29.977Z,4.52
2023-02-12T06:49:46.271Z,4.74
2023-02-12T06:54:02.412Z,4.53
2023-02-12T06:58:18.685Z,4.59
2023-02-12T07:02:36.269Z,5.04
2023-02-12T07:06:54.298Z,5.25
2023-02-12T07:11:11.076Z,5.45
2023-02-12T07:15:27.343Z,5.34
2023-02-12T07:19:43.674Z,6.22
2023-02-12T07:24:00.321Z,6.36
2023-02-12T07:28:16.644Z,6.47
2023-02-12T07:32:34.274Z,6.35
2023-02-12T07:36:50.490Z,6.69
2023-02-12T07:41:10.821Z,6.71
2023-02-12T07:45:27.382Z,7.07
2023-02-12T07:49:43.720Z,7.21
2023-02-12T07:54:01.505Z,7.65
2023-02-12T07:58:17.680Z,7.96
2023-02-12T08:02:33.929Z,7.65
2023-02-12T08:06:52.093Z,7.72
2023-02-12T08:11:10.325Z,7.43
2023-02-12T08:15:26.632Z,7.33
2023-02-12T08:19:42.876Z,6.87
2023-02-12T08:24:00.134Z,7.31
2023-02-12T08:28:16.414Z,7.33
2023-02-12T08:32:34.051Z,6.86
2023-02-12T08:36:52.131Z,7.21
2023-02-12T08:41:13.821Z,7.15
2023-02-12T08:45:30.127Z,7.10
2023-02-12T08:49:46.330Z,7.24
2023-02-12T08:54:05.348Z,7.12
2023-02-12T08:58:21.685Z,7.53
2023-02-12T09:02:37.986Z,7.61
2023-02-12T09:06:54.450Z,8.04
2023-02-12T09:11:19.670Z,8.37
2023-02-12T09:15:45.107Z,8.51
2023-02-12T09:20:02.822Z,9.20
2023-02-12T09:24:19.372Z,9.32
2023-02-12T09:28:36.611Z,9.39
2023-02-12T09:32:53.037Z,9.40
2023-02-12T09:37:09.291Z,9.62
2023-02-12T09:41:47.360Z,10.13
2023-02-12T09:46:21.522Z,10.29
2023-02-12T09:50:46.446Z,10.71
2023-02-12T09:55:02.828Z,10.83
2023-02-12T09:59:31.032Z,11.30
2023-02-12T10:03:49.233Z,11.31
2023-02-12T10:08:14.389Z,10.82
2023-02-12T10:12:42.287Z,10.81
2023-02-12T10:17:27.869Z,11.32
2023-02-12T10:22:24.029Z,11.32
2023-02-12T10:26:51.930Z,11.15
2023-02-12T10:31:23.578Z,10.96
2023-02-12T10:35:44.976Z,11.45
2023-02-12T10:40:15.224Z,11.74
2023-02-12T10:44:31.735Z,11.68
2023-02-12T10:48:54.226Z,11.61
2023-02-12T10:53:32.196Z,11.21
2023-02-12T10:57:48.426Z,11.62
2023-02-12T11:02:05.663Z,11.78
2023-02-12T11:06:33.214Z,11.45
2023-02-12T11:10:49.467Z,11.48
2023-02-12T11:15:16.389Z,12.28
2023-02-12T11:19:35.355Z,12.40
2023-02-12T11:23:51.740Z,12.93
2023-02-12T11:28:17.114Z,12.86
2023-02-12T11:32:33.671Z,12.33
2023-02-12T11:36:52.111Z,12.03
2023-02-12T11:41:21.823Z,12.24
2023-02-12T11:45:52.761Z,13.11
2023-02-12T11:50:26.645Z,13.83
2023-02-12T11:54:47.268Z,14.35
2023-02-12T11:59:37.547Z,14.75
2023-02-12T12:04:17.991Z,14.32
2023-02-12T12:08:39.831Z,13.12
2023-02-12T12:13:00.056Z,12.97
2023-02-12T12:17:35.912Z,12.14
2023-02-12T12:21:59.381Z,12.71
2023-02-12T12:26:22.513Z,12.84
2023-02-12T12:30:49.326Z,13.61
2023-02-12T12:35:10.764Z,14.26
2023-02-12T12:39:29.819Z,14.78
2023-02-12T12:44:02.463Z,14.25
2023-02-12T12:48:18.643Z,15.35
2023-02-12T12:53:06.030Z,15.56
2023-02-12T12:57:40.228Z,16.47
2023-02-12T13:02:30.016Z,16.58
2023-02-12T13:07:14.255Z,16.44
2023-02-12T13:11:46.653Z,15.44
2023-02-12T13:16:31.278Z,14.08
2023-02-12T13:21:07.935Z,14.24
2023-02-12T13:25:52.399Z,14.22
2023-02-12T13:30:18.842Z,13.57
2023-02-12T13:34:36.979Z,13.24
2023-02-12T13:39:24.270Z,13.61
2023-02-12T13:43:46.592Z,13.69
2023-02-12T13:48:11.858Z,14.68
2023-02-12T13:52:56.249Z,15.21
2023-02-12T13:57:22.174Z,15.58
2023-02-12T14:01:56.861Z,15.67
2023-02-12T14:06:20.746Z,16.40
2023-02-12T14:10:41.892Z,14.84
2023-02-12T14:15:04.777Z,14.50
2023-02-12T14:19:39.243Z,15.49
2023-02-12T14:24:15.485Z,15.13
2023-02-12T14:28:52.127Z,16.93
2023-02-12T14:33:10.479Z,18.22
2023-02-12T14:37:38.091Z,19.03
2023-02-12T14:41:57.614Z,18.61
2023-02-12T14:46:26.070Z,18.56
2023-02-12T14:50:52.421Z,18.15
2023-02-12T14:55:28.218Z,18.37
2023-02-12T14:59:45.584Z,21.28
2023-02-12T15:04:11.760Z,25.65
2023-02-12T15:08:41.745Z,27.37
2023-02-12T15:13:17.406Z,28.16
2023-02-12T15:17:39.753Z,27.37
2023-02-12T15:21:56.099Z,28.42
2023-02-12T15:26:18.908Z,28.25
2023-02-12T15:30:37.101Z,27.97
2023-02-12T15:34:54.015Z,27.05
2023-02-12T15:39:18.582Z,26.60
2023-02-12T15:43:40.627Z,25.56
2023-02-12T15:48:22.443Z,23.85
2023-02-12T15:52:41.462Z,21.67
2023-02-12T15:56:57.779Z,20.21
2023-02-12T16:01:18.231Z,18.32
2023-02-12T16:05:35.525Z,16.99
2023-02-12T16:09:53.921Z,15.92
2023-02-12T16:14:25.435Z,15.31
2023-02-12T16:18:43.344Z,14.24
2023-02-12T16:23:03.006Z,13.27
2023-02-12T16:27:23.389Z,13.02
2023-02-12T16:31:39.714Z,12.26
2023-02-12T16:36:13.493Z,12.15
2023-02-12T16:40:33.563Z,11.76
2023-02-12T16:44:49.873Z,11.34
2023-02-12T16:49:06.587Z,11.05
2023-02-12T16:53:32.023Z,10.52
2023-02-12T16:57:48.277Z,10.19
2023-02-12T17:02:12.344Z,10.21
2023-02-12T17:06:31.070Z,10.05
2023-02-12T17:10:48.541Z,9.72
2023-02-12T17:15:06.203Z,9.56
2023-02-12T17:19:25.431Z,9.61
2023-02-12T17:23:42.684Z,9.64
2023-02-12T17:27:59.078Z,9.46
2023-02-12T17:32:16.464Z,9.54
2023-02-12T17:36:33.142Z,9.34
2023-02-12T17:40:49.367Z,9.42
2023-02-12T17:45:05.952Z,9.18
2023-02-12T17:49:22.224Z,9.10
2023-02-12T17:53:39.941Z,9.22
2023-02-12T17:57:56.504Z,9.19
2023-02-12T18:02:13.102Z,8.96
2023-02-12T18:06:31.178Z,8.85
2023-02-12T18:10:47.521Z,8.67
2023-02-12T18:15:04.936Z,8.51
2023-02-12T18:19:21.189Z,8.44
2023-02-12T18:23:38.066Z,8.28
2023-02-12T18:27:54.331Z,8.11
2023-02-12T18:32:14.871Z,7.99
2023-02-12T18:36:31.419Z,8.01
2023-02-12T18:40:47.732Z,7.84
2023-02-12T18:45:04.513Z,7.75
2023-02-12T18:49:20.869Z,7.49
2023-02-12T18:53:37.279Z,7.56
2023-02-12T18:57:53.601Z,7.33
2023-02-12T19:02:11.836Z,7.31
2023-02-12T19:06:30.051Z,7.19
2023-02-12T19:10:49.708Z,7.17
2023-02-12T19:15:10.824Z,6.98
2023-02-12T19:19:34.319Z,6.85
2023-02-12T19:23:51.970Z,6.83
2023-02-12T19:28:08.508Z,6.95
2023-02-12T19:32:24.802Z,6.65
2023-02-12T19:36:41.232Z,6.35
2023-02-12T19:41:10.621Z,6.19
2023-02-12T19:45:27.303Z,6.14
2023-02-12T19:49:43.874Z,6.18
2023-02-12T19:54:04.953Z,6.11
2023-02-12T19:58:21.392Z,6.15
2023-02-12T20:02:37.657Z,6.05
2023-02-12T20:06:54.629Z,5.89
2023-02-12T20:11:17.059Z,5.67
2023-02-12T20:15:38.323Z,5.68
2023-02-12T20:19:56.937Z,5.58
2023-02-12T20:24:13.723Z,5.34
2023-02-12T20:28:30.109Z,5.16
2023-02-12T20:32:47.071Z,5.13
2023-02-12T20:37:05.081Z,4.83
2023-02-12T20:41:21.398Z,4.98
2023-02-12T20:45:37.675Z,4.86
2023-02-12T20:49:55.774Z,4.94
2023-02-12T20:54:12.393Z,4.96
2023-02-12T20:58:29.540Z,5.06
2023-02-12T21:02:47.354Z,4.55
2023-02-12T21:07:03.767Z,4.20
2023-02-12T21:11:23.126Z,4.33
2023-02-12T21:15:39.499Z,4.24
2023-02-12T21:19:56.029Z,4.06
2023-02-12T21:24:21.916Z,4.14
2023-02-12T21:28:38.450Z,4.25
2023-02-12T21:32:55.472Z,4.11
2023-02-12T21:37:11.748Z,4.11
2023-02-12T21:41:34.730Z,4.12
2023-02-12T21:45:54.200Z,3.92
2023-02-12T21:50:14.627Z,3.50
2023-02-12T21:54:31.522Z,3.88
2023-02-12T21:58:48.598Z,3.79
2023-02-12T22:03:04.884Z,3.59
2023-02-12T22:07:21.349Z,3.71
2023-02-12T22:11:39.025Z,3.67
2023-02-12T22:15:55.442Z,3.73
2023-02-12T22:20:12.408Z,3.62
2023-02-12T22:24:28.731Z,3.61
2023-02-12T22:28:55.935Z,3.50
2023-02-12T22:33:12.783Z,3.36
2023-02-12T22:37:29.114Z,3.39
2023-02-12T22:41:45.477Z,3.10
2023-02-12T22:46:01.880Z,3.19
2023-02-12T22:50:18.363Z,3.13
2023-02-12T22:54:34.623Z,3.19
2023-02-12T22:58:58.751Z,2.57
2023-02-12T23:03:14.999Z,2.53
2023-02-12T23:07:31.241Z,2.47
2023-02-12T23:11:48.281Z,2.53
2023-02-12T23:16:04.875Z,2.58
2023-02-12T23:20:21.228Z,2.52
2023-02-12T23:24:37.707Z,2.92
2023-02-12T23:28:54.937Z,2.90
2023-02-12T23:33:11.343Z,3.04
2023-02-12T23:37:28.665Z,3.09
2023-02-12T23:41:45.056Z,2.68
2023-02-12T23:46:01.536Z,2.68
2023-02-12T23:50:18.047Z,2.65
2023-02-12T23:54:34.434Z,2.66
2023-02-12T23:58:50.742Z,2.08
